sensor_id;sensor_type;location;lat;lon;timestamp;P1;durP1;ratioP1;P2;durP2;ratioP2
3953;SDS011;1991;48.682;9.030;2022-09-09T00:02:22;2.10;;;0.90;;
3953;SDS011;1991;48.682;9.030;2022-09-09T00:04:59;1.92;;;0.77;;
3953;SDS011;1991;48.682;9.030;2022-09-09T00:07:41;2.72;;;0.82;;
3953;SDS011;1991;48.682;9.030;2022-09-09T00:13:16;5.80;;;1.08;;
3953;SDS011;1991;48.682;9.030;2022-09-09T00:18:52;6.20;;;0.82;;
3953;SDS011;1991;48.682;9.030;2022-09-09T00:21:30;3.72;;;0.80;;
3953;SDS011;1991;48.682;9.030;2022-09-09T00:24:38;3.92;;;1.00;;
3953;SDS011;1991;48.682;9.030;2022-09-09T00:27:30;5.43;;;1.10;;
3953;SDS011;1991;48.682;9.030;2022-09-09T00:32:41;4.30;;;1.10;;
3953;SDS011;1991;48.682;9.030;2022-09-09T00:37:40;2.05;;;0.80;;
3953;SDS011;1991;48.682;9.030;2022-09-09T00:40:16;2.60;;;0.80;;
3953;SDS011;1991;48.682;9.030;2022-09-09T00:48:13;4.63;;;0.93;;
3953;SDS011;1991;48.682;9.030;2022-09-09T00:53:22;3.85;;;0.80;;
3953;SDS011;1991;48.682;9.030;2022-09-09T00:58:27;5.22;;;1.08;;
3953;SDS011;1991;48.682;9.030;2022-09-09T01:00:57;7.07;;;0.93;;
3953;SDS011;1991;48.682;9.030;2022-09-09T01:03:48;3.53;;;0.77;;
3953;SDS011;1991;48.682;9.030;2022-09-09T01:06:20;4.85;;;0.73;;
3953;SDS011;1991;48.682;9.030;2022-09-09T01:11:24;1.42;;;0.70;;
3953;SDS011;1991;48.682;9.030;2022-09-09T01:16:56;3.58;;;1.10;;
3953;SDS011;1991;48.682;9.030;2022-09-09T01:19:27;1.58;;;0.75;;
3953;SDS011;1991;48.682;9.030;2022-09-09T01:22:03;5.38;;;1.15;;
3953;SDS011;1991;48.682;9.030;2022-09-09T01:24:40;2.72;;;0.80;;
3953;SDS011;1991;48.682;9.030;2022-09-09T01:27:31;2.85;;;0.77;;
3953;SDS011;1991;48.682;9.030;2022-09-09T01:29:58;4.53;;;0.93;;
3953;SDS011;1991;48.682;9.030;2022-09-09T01:38:13;3.17;;;0.90;;
3953;SDS011;1991;48.682;9.030;2022-09-09T01:40:40;4.65;;;0.70;;
3953;SDS011;1991;48.682;9.030;2022-09-09T01:43:06;4.20;;;0.90;;
3953;SDS011;1991;48.682;9.030;2022-09-09T01:45:32;3.47;;;0.70;;
3953;SDS011;1991;48.682;9.030;2022-09-09T01:47:59;2.88;;;0.70;;
3953;SDS011;1991;48.682;9.030;2022-09-09T01:50:25;2.08;;;0.77;;
3953;SDS011;1991;48.682;9.030;2022-09-09T01:52:52;3.25;;;0.80;;
3953;SDS011;1991;48.682;9.030;2022-09-09T01:55:31;2.78;;;0.80;;
3953;SDS011;1991;48.682;9.030;2022-09-09T01:58:17;2.22;;;0.90;;
3953;SDS011;1991;48.682;9.030;2022-09-09T02:01:16;6.30;;;0.95;;
3953;SDS011;1991;48.682;9.030;2022-09-09T02:04:04;3.88;;;0.85;;
3953;SDS011;1991;48.682;9.030;2022-09-09T02:06:39;2.70;;;0.98;;
3953;SDS011;1991;48.682;9.030;2022-09-09T02:09:06;2.15;;;0.73;;
3953;SDS011;1991;48.682;9.030;2022-09-09T02:11:35;1.65;;;0.93;;
3953;SDS011;1991;48.682;9.030;2022-09-09T02:16:55;3.22;;;0.90;;
3953;SDS011;1991;48.682;9.030;2022-09-09T02:19:27;4.70;;;1.00;;
3953;SDS011;1991;48.682;9.030;2022-09-09T02:21:57;3.20;;;0.88;;
3953;SDS011;1991;48.682;9.030;2022-09-09T02:24:25;4.80;;;0.90;;
3953;SDS011;1991;48.682;9.030;2022-09-09T02:26:54;2.33;;;0.90;;
3953;SDS011;1991;48.682;9.030;2022-09-09T02:29:30;3.50;;;0.90;;
3953;SDS011;1991;48.682;9.030;2022-09-09T02:31:59;2.65;;;0.98;;
3953;SDS011;1991;48.682;9.030;2022-09-09T02:34:29;3.60;;;0.80;;
3953;SDS011;1991;48.682;9.030;2022-09-09T02:36:58;4.65;;;1.10;;
3953;SDS011;1991;48.682;9.030;2022-09-09T02:39:25;1.77;;;0.88;;
3953;SDS011;1991;48.682;9.030;2022-09-09T02:41:51;2.28;;;0.90;;
3953;SDS011;1991;48.682;9.030;2022-09-09T02:44:18;4.35;;;0.82;;
3953;SDS011;1991;48.682;9.030;2022-09-09T02:52:14;6.10;;;1.08;;
3953;SDS011;1991;48.682;9.030;2022-09-09T02:54:42;3.75;;;0.65;;
3953;SDS011;1991;48.682;9.030;2022-09-09T02:57:14;1.67;;;0.80;;
3953;SDS011;1991;48.682;9.030;2022-09-09T02:59:44;1.35;;;0.80;;
3953;SDS011;1991;48.682;9.030;2022-09-09T03:02:11;3.33;;;0.80;;
3953;SDS011;1991;48.682;9.030;2022-09-09T03:04:38;3.40;;;0.70;;
3953;SDS011;1991;48.682;9.030;2022-09-09T03:07:04;3.72;;;0.90;;
3953;SDS011;1991;48.682;9.030;2022-09-09T03:09:30;1.52;;;0.73;;
3953;SDS011;1991;48.682;9.030;2022-09-09T03:11:57;2.92;;;0.98;;
3953;SDS011;1991;48.682;9.030;2022-09-09T03:14:23;2.63;;;0.88;;
3953;SDS011;1991;48.682;9.030;2022-09-09T03:16:52;3.33;;;0.80;;
3953;SDS011;1991;48.682;9.030;2022-09-09T03:19:18;3.22;;;0.95;;
3953;SDS011;1991;48.682;9.030;2022-09-09T03:21:45;2.17;;;0.80;;
3953;SDS011;1991;48.682;9.030;2022-09-09T03:24:11;2.63;;;0.80;;
3953;SDS011;1991;48.682;9.030;2022-09-09T03:26:38;2.00;;;0.80;;
3953;SDS011;1991;48.682;9.030;2022-09-09T03:29:05;6.15;;;0.85;;
3953;SDS011;1991;48.682;9.030;2022-09-09T03:31:33;2.83;;;0.80;;
3953;SDS011;1991;48.682;9.030;2022-09-09T03:34:00;1.67;;;0.80;;
3953;SDS011;1991;48.682;9.030;2022-09-09T03:36:26;3.25;;;0.70;;
3953;SDS011;1991;48.682;9.030;2022-09-09T03:38:53;2.40;;;0.70;;
3953;SDS011;1991;48.682;9.030;2022-09-09T03:41:20;1.90;;;0.50;;
3953;SDS011;1991;48.682;9.030;2022-09-09T03:43:48;0.73;;;0.60;;
3953;SDS011;1991;48.682;9.030;2022-09-09T03:46:15;1.63;;;0.57;;
3953;SDS011;1991;48.682;9.030;2022-09-09T03:48:40;2.75;;;0.88;;
3953;SDS011;1991;48.682;9.030;2022-09-09T03:51:06;1.80;;;0.73;;
3953;SDS011;1991;48.682;9.030;2022-09-09T03:53:31;1.63;;;1.13;;
3953;SDS011;1991;48.682;9.030;2022-09-09T03:55:58;4.28;;;1.00;;
3953;SDS011;1991;48.682;9.030;2022-09-09T03:58:25;4.47;;;0.80;;
3953;SDS011;1991;48.682;9.030;2022-09-09T04:01:02;1.55;;;0.63;;
3953;SDS011;1991;48.682;9.030;2022-09-09T04:03:29;4.07;;;0.63;;
3953;SDS011;1991;48.682;9.030;2022-09-09T04:05:56;1.40;;;0.70;;
3953;SDS011;1991;48.682;9.030;2022-09-09T04:08:23;2.28;;;0.80;;
3953;SDS011;1991;48.682;9.030;2022-09-09T04:10:52;3.22;;;0.80;;
3953;SDS011;1991;48.682;9.030;2022-09-09T04:13:18;1.25;;;0.70;;
3953;SDS011;1991;48.682;9.030;2022-09-09T04:15:54;2.08;;;0.70;;
3953;SDS011;1991;48.682;9.030;2022-09-09T04:18:22;4.90;;;1.23;;
3953;SDS011;1991;48.682;9.030;2022-09-09T04:20:49;3.35;;;1.02;;
3953;SDS011;1991;48.682;9.030;2022-09-09T04:23:15;3.60;;;1.00;;
3953;SDS011;1991;48.682;9.030;2022-09-09T04:25:44;3.83;;;0.80;;
3953;SDS011;1991;48.682;9.030;2022-09-09T04:28:11;4.13;;;0.93;;
3953;SDS011;1991;48.682;9.030;2022-09-09T04:30:38;2.60;;;0.85;;
3953;SDS011;1991;48.682;9.030;2022-09-09T04:33:05;2.00;;;0.77;;
3953;SDS011;1991;48.682;9.030;2022-09-09T04:35:31;1.27;;;0.63;;
3953;SDS011;1991;48.682;9.030;2022-09-09T04:37:57;3.30;;;0.80;;
3953;SDS011;1991;48.682;9.030;2022-09-09T04:40:22;3.25;;;0.90;;
3953;SDS011;1991;48.682;9.030;2022-09-09T04:42:48;6.60;;;0.88;;
3953;SDS011;1991;48.682;9.030;2022-09-09T04:45:14;2.15;;;0.98;;
3953;SDS011;1991;48.682;9.030;2022-09-09T04:47:40;1.85;;;0.70;;
3953;SDS011;1991;48.682;9.030;2022-09-09T04:50:06;1.63;;;0.80;;
3953;SDS011;1991;48.682;9.030;2022-09-09T04:52:34;3.50;;;0.85;;
3953;SDS011;1991;48.682;9.030;2022-09-09T04:55:00;3.70;;;1.25;;
3953;SDS011;1991;48.682;9.030;2022-09-09T04:57:26;4.00;;;0.90;;
3953;SDS011;1991;48.682;9.030;2022-09-09T04:59:51;2.72;;;0.70;;
3953;SDS011;1991;48.682;9.030;2022-09-09T05:02:17;2.70;;;0.70;;
3953;SDS011;1991;48.682;9.030;2022-09-09T05:04:43;2.33;;;0.80;;
3953;SDS011;1991;48.682;9.030;2022-09-09T05:07:08;2.42;;;0.98;;
3953;SDS011;1991;48.682;9.030;2022-09-09T05:09:34;1.80;;;0.70;;
3953;SDS011;1991;48.682;9.030;2022-09-09T05:11:59;6.18;;;1.08;;
3953;SDS011;1991;48.682;9.030;2022-09-09T05:14:25;3.40;;;0.90;;
3953;SDS011;1991;48.682;9.030;2022-09-09T05:16:52;4.80;;;1.20;;
3953;SDS011;1991;48.682;9.030;2022-09-09T05:19:17;2.95;;;0.82;;
3953;SDS011;1991;48.682;9.030;2022-09-09T05:21:44;3.78;;;0.75;;
3953;SDS011;1991;48.682;9.030;2022-09-09T05:24:10;4.80;;;1.00;;
3953;SDS011;1991;48.682;9.030;2022-09-09T05:26:36;5.18;;;0.88;;
3953;SDS011;1991;48.682;9.030;2022-09-09T05:29:01;5.45;;;0.77;;
3953;SDS011;1991;48.682;9.030;2022-09-09T05:31:29;4.80;;;0.90;;
3953;SDS011;1991;48.682;9.030;2022-09-09T05:33:55;1.85;;;0.70;;
3953;SDS011;1991;48.682;9.030;2022-09-09T05:36:21;2.60;;;0.85;;
3953;SDS011;1991;48.682;9.030;2022-09-09T05:38:47;5.38;;;0.95;;
3953;SDS011;1991;48.682;9.030;2022-09-09T05:41:14;3.20;;;0.82;;
3953;SDS011;1991;48.682;9.030;2022-09-09T05:43:41;3.95;;;0.80;;
3953;SDS011;1991;48.682;9.030;2022-09-09T05:46:15;2.70;;;0.68;;
3953;SDS011;1991;48.682;9.030;2022-09-09T05:48:45;3.75;;;0.88;;
3953;SDS011;1991;48.682;9.030;2022-09-09T05:51:13;1.98;;;0.70;;
3953;SDS011;1991;48.682;9.030;2022-09-09T05:53:41;6.13;;;0.75;;
3953;SDS011;1991;48.682;9.030;2022-09-09T05:56:09;5.07;;;1.00;;
3953;SDS011;1991;48.682;9.030;2022-09-09T05:58:36;1.70;;;0.80;;
3953;SDS011;1991;48.682;9.030;2022-09-09T06:01:05;3.25;;;1.40;;
3953;SDS011;1991;48.682;9.030;2022-09-09T06:03:36;3.78;;;0.93;;
3953;SDS011;1991;48.682;9.030;2022-09-09T06:06:03;5.15;;;1.00;;
3953;SDS011;1991;48.682;9.030;2022-09-09T06:08:31;2.75;;;0.90;;
3953;SDS011;1991;48.682;9.030;2022-09-09T06:11:05;4.70;;;1.23;;
3953;SDS011;1991;48.682;9.030;2022-09-09T06:13:32;4.15;;;0.90;;
3953;SDS011;1991;48.682;9.030;2022-09-09T06:15:57;6.47;;;0.98;;
3953;SDS011;1991;48.682;9.030;2022-09-09T06:18:24;5.60;;;1.13;;
3953;SDS011;1991;48.682;9.030;2022-09-09T06:23:24;3.22;;;0.73;;
3953;SDS011;1991;48.682;9.030;2022-09-09T06:25:50;4.40;;;1.05;;
3953;SDS011;1991;48.682;9.030;2022-09-09T06:28:17;2.17;;;0.85;;
3953;SDS011;1991;48.682;9.030;2022-09-09T06:30:44;3.63;;;0.95;;
3953;SDS011;1991;48.682;9.030;2022-09-09T06:33:09;1.63;;;0.98;;
3953;SDS011;1991;48.682;9.030;2022-09-09T06:35:35;2.60;;;0.88;;
3953;SDS011;1991;48.682;9.030;2022-09-09T06:38:01;5.45;;;0.80;;
3953;SDS011;1991;48.682;9.030;2022-09-09T06:40:26;3.33;;;0.90;;
3953;SDS011;1991;48.682;9.030;2022-09-09T06:42:52;3.63;;;0.95;;
3953;SDS011;1991;48.682;9.030;2022-09-09T06:45:18;5.22;;;1.20;;
3953;SDS011;1991;48.682;9.030;2022-09-09T06:47:43;2.42;;;0.75;;
3953;SDS011;1991;48.682;9.030;2022-09-09T06:50:09;4.00;;;1.80;;
3953;SDS011;1991;48.682;9.030;2022-09-09T06:52:36;3.17;;;0.82;;
3953;SDS011;1991;48.682;9.030;2022-09-09T06:55:02;2.40;;;0.77;;
3953;SDS011;1991;48.682;9.030;2022-09-09T06:57:28;1.60;;;0.75;;
3953;SDS011;1991;48.682;9.030;2022-09-09T06:59:54;7.28;;;1.30;;
3953;SDS011;1991;48.682;9.030;2022-09-09T07:02:19;1.65;;;0.73;;
3953;SDS011;1991;48.682;9.030;2022-09-09T07:04:46;1.67;;;0.90;;
3953;SDS011;1991;48.682;9.030;2022-09-09T07:07:12;5.55;;;1.00;;
3953;SDS011;1991;48.682;9.030;2022-09-09T07:09:38;2.17;;;1.00;;
3953;SDS011;1991;48.682;9.030;2022-09-09T07:12:05;2.55;;;0.70;;
3953;SDS011;1991;48.682;9.030;2022-09-09T07:14:31;2.42;;;0.75;;
3953;SDS011;1991;48.682;9.030;2022-09-09T07:16:57;3.40;;;1.00;;
3953;SDS011;1991;48.682;9.030;2022-09-09T07:19:23;2.30;;;0.80;;
3953;SDS011;1991;48.682;9.030;2022-09-09T07:21:49;3.25;;;0.77;;
3953;SDS011;1991;48.682;9.030;2022-09-09T07:24:15;5.35;;;0.80;;
3953;SDS011;1991;48.682;9.030;2022-09-09T07:26:40;4.07;;;0.90;;
3953;SDS011;1991;48.682;9.030;2022-09-09T07:29:06;5.95;;;0.98;;
3953;SDS011;1991;48.682;9.030;2022-09-09T07:31:34;4.22;;;0.90;;
3953;SDS011;1991;48.682;9.030;2022-09-09T07:34:02;4.70;;;0.68;;
3953;SDS011;1991;48.682;9.030;2022-09-09T07:36:29;5.55;;;0.90;;
3953;SDS011;1991;48.682;9.030;2022-09-09T07:38:58;4.32;;;0.95;;
3953;SDS011;1991;48.682;9.030;2022-09-09T07:41:28;1.23;;;0.65;;
3953;SDS011;1991;48.682;9.030;2022-09-09T07:43:59;3.65;;;0.98;;
3953;SDS011;1991;48.682;9.030;2022-09-09T07:46:29;6.78;;;1.00;;
3953;SDS011;1991;48.682;9.030;2022-09-09T07:48:55;3.08;;;1.13;;
3953;SDS011;1991;48.682;9.030;2022-09-09T07:51:25;4.88;;;0.75;;
3953;SDS011;1991;48.682;9.030;2022-09-09T07:53:57;2.10;;;0.60;;
3953;SDS011;1991;48.682;9.030;2022-09-09T07:56:25;3.88;;;0.82;;
3953;SDS011;1991;48.682;9.030;2022-09-09T07:58:52;2.38;;;0.88;;
3953;SDS011;1991;48.682;9.030;2022-09-09T08:01:20;3.28;;;0.80;;
3953;SDS011;1991;48.682;9.030;2022-09-09T08:03:52;4.07;;;0.80;;
3953;SDS011;1991;48.682;9.030;2022-09-09T08:06:29;6.13;;;1.20;;
3953;SDS011;1991;48.682;9.030;2022-09-09T08:08:58;2.88;;;0.77;;
3953;SDS011;1991;48.682;9.030;2022-09-09T08:11:24;3.67;;;0.95;;
3953;SDS011;1991;48.682;9.030;2022-09-09T08:13:51;3.13;;;0.82;;
3953;SDS011;1991;48.682;9.030;2022-09-09T08:16:19;5.47;;;0.90;;
3953;SDS011;1991;48.682;9.030;2022-09-09T08:18:47;3.45;;;0.80;;
3953;SDS011;1991;48.682;9.030;2022-09-09T08:21:17;5.50;;;1.15;;
3953;SDS011;1991;48.682;9.030;2022-09-09T08:23:45;2.67;;;0.80;;
3953;SDS011;1991;48.682;9.030;2022-09-09T08:26:13;3.13;;;0.95;;
3953;SDS011;1991;48.682;9.030;2022-09-09T08:28:39;4.60;;;0.85;;
3953;SDS011;1991;48.682;9.030;2022-09-09T08:31:10;4.10;;;0.93;;
3953;SDS011;1991;48.682;9.030;2022-09-09T08:33:41;6.85;;;1.05;;
3953;SDS011;1991;48.682;9.030;2022-09-09T08:36:09;7.65;;;0.80;;
3953;SDS011;1991;48.682;9.030;2022-09-09T08:38:36;4.53;;;0.80;;
3953;SDS011;1991;48.682;9.030;2022-09-09T08:43:46;3.08;;;0.93;;
3953;SDS011;1991;48.682;9.030;2022-09-09T08:46:59;5.43;;;1.20;;
3953;SDS011;1991;48.682;9.030;2022-09-09T08:52:27;4.88;;;0.98;;
3953;SDS011;1991;48.682;9.030;2022-09-09T08:55:11;6.78;;;1.08;;
3953;SDS011;1991;48.682;9.030;2022-09-09T08:58:04;5.85;;;1.10;;
3953;SDS011;1991;48.682;9.030;2022-09-09T09:00:40;5.38;;;0.95;;
3953;SDS011;1991;48.682;9.030;2022-09-09T09:06:12;4.25;;;1.02;;
3953;SDS011;1991;48.682;9.030;2022-09-09T09:08:51;4.55;;;1.00;;
3953;SDS011;1991;48.682;9.030;2022-09-09T09:11:24;3.85;;;1.05;;
3953;SDS011;1991;48.682;9.030;2022-09-09T09:19:08;4.45;;;0.75;;
3953;SDS011;1991;48.682;9.030;2022-09-09T09:21:40;2.25;;;0.68;;
3953;SDS011;1991;48.682;9.030;2022-09-09T09:24:18;2.22;;;0.52;;
3953;SDS011;1991;48.682;9.030;2022-09-09T09:26:47;2.15;;;0.60;;
3953;SDS011;1991;48.682;9.030;2022-09-09T09:29:14;2.17;;;0.60;;
3953;SDS011;1991;48.682;9.030;2022-09-09T09:31:43;1.92;;;0.70;;
3953;SDS011;1991;48.682;9.030;2022-09-09T09:34:12;1.55;;;0.47;;
3953;SDS011;1991;48.682;9.030;2022-09-09T09:36:42;1.63;;;0.60;;
3953;SDS011;1991;48.682;9.030;2022-09-09T09:39:22;2.47;;;0.77;;
3953;SDS011;1991;48.682;9.030;2022-09-09T09:41:52;1.80;;;0.60;;
3953;SDS011;1991;48.682;9.030;2022-09-09T09:44:26;5.90;;;0.88;;
3953;SDS011;1991;48.682;9.030;2022-09-09T09:47:04;2.65;;;0.93;;
3953;SDS011;1991;48.682;9.030;2022-09-09T09:52:20;1.65;;;0.60;;
3953;SDS011;1991;48.682;9.030;2022-09-09T09:54:49;3.58;;;0.80;;
3953;SDS011;1991;48.682;9.030;2022-09-09T09:57:16;2.83;;;0.82;;
3953;SDS011;1991;48.682;9.030;2022-09-09T09:59:43;4.00;;;1.08;;
3953;SDS011;1991;48.682;9.030;2022-09-09T10:02:16;5.32;;;1.10;;
3953;SDS011;1991;48.682;9.030;2022-09-09T10:04:46;2.72;;;0.95;;
3953;SDS011;1991;48.682;9.030;2022-09-09T10:07:22;4.47;;;0.80;;
3953;SDS011;1991;48.682;9.030;2022-09-09T10:09:55;1.85;;;0.80;;
3953;SDS011;1991;48.682;9.030;2022-09-09T10:12:30;2.08;;;0.80;;
3953;SDS011;1991;48.682;9.030;2022-09-09T10:20:54;4.63;;;1.00;;
3953;SDS011;1991;48.682;9.030;2022-09-09T10:23:54;5.97;;;1.00;;
3953;SDS011;1991;48.682;9.030;2022-09-09T10:29:23;3.80;;;1.13;;
3953;SDS011;1991;48.682;9.030;2022-09-09T10:34:42;3.85;;;0.80;;
3953;SDS011;1991;48.682;9.030;2022-09-09T10:42:44;3.20;;;1.02;;
3953;SDS011;1991;48.682;9.030;2022-09-09T10:45:18;4.18;;;0.90;;
3953;SDS011;1991;48.682;9.030;2022-09-09T10:48:17;3.50;;;0.93;;
3953;SDS011;1991;48.682;9.030;2022-09-09T10:51:04;3.55;;;1.25;;
3953;SDS011;1991;48.682;9.030;2022-09-09T10:56:42;3.05;;;0.93;;
3953;SDS011;1991;48.682;9.030;2022-09-09T11:01:52;2.58;;;1.05;;
3953;SDS011;1991;48.682;9.030;2022-09-09T11:04:29;2.53;;;0.70;;
3953;SDS011;1991;48.682;9.030;2022-09-09T11:07:01;4.80;;;0.77;;
3953;SDS011;1991;48.682;9.030;2022-09-09T11:09:37;2.33;;;0.50;;
3953;SDS011;1991;48.682;9.030;2022-09-09T11:12:09;2.70;;;0.60;;
3953;SDS011;1991;48.682;9.030;2022-09-09T11:14:45;3.95;;;0.90;;
3953;SDS011;1991;48.682;9.030;2022-09-09T11:17:40;6.55;;;0.70;;
3953;SDS011;1991;48.682;9.030;2022-09-09T11:20:12;5.78;;;0.63;;
3953;SDS011;1991;48.682;9.030;2022-09-09T11:22:52;3.75;;;0.70;;
3953;SDS011;1991;48.682;9.030;2022-09-09T11:25:39;2.22;;;0.60;;
3953;SDS011;1991;48.682;9.030;2022-09-09T11:31:26;2.58;;;0.43;;
3953;SDS011;1991;48.682;9.030;2022-09-09T11:34:38;1.70;;;0.28;;
3953;SDS011;1991;48.682;9.030;2022-09-09T11:40:19;0.50;;;0.20;;
3953;SDS011;1991;48.682;9.030;2022-09-09T11:43:01;1.52;;;0.28;;
3953;SDS011;1991;48.682;9.030;2022-09-09T11:45:34;0.20;;;0.10;;
3953;SDS011;1991;48.682;9.030;2022-09-09T11:48:02;1.90;;;0.22;;
3953;SDS011;1991;48.682;9.030;2022-09-09T11:50:32;0.47;;;0.10;;
3953;SDS011;1991;48.682;9.030;2022-09-09T11:53:32;0.52;;;0.10;;
3953;SDS011;1991;48.682;9.030;2022-09-09T11:56:09;0.98;;;0.30;;
3953;SDS011;1991;48.682;9.030;2022-09-09T11:58:39;2.40;;;0.30;;
3953;SDS011;1991;48.682;9.030;2022-09-09T12:01:25;0.65;;;0.10;;
3953;SDS011;1991;48.682;9.030;2022-09-09T12:04:05;1.08;;;0.10;;
3953;SDS011;1991;48.682;9.030;2022-09-09T12:06:42;2.33;;;0.20;;
3953;SDS011;1991;48.682;9.030;2022-09-09T12:09:32;2.30;;;0.20;;
3953;SDS011;1991;48.682;9.030;2022-09-09T12:17:24;1.17;;;0.35;;
3953;SDS011;1991;48.682;9.030;2022-09-09T12:25:22;1.98;;;0.40;;
3953;SDS011;1991;48.682;9.030;2022-09-09T12:27:59;0.50;;;0.20;;
3953;SDS011;1991;48.682;9.030;2022-09-09T12:33:13;1.73;;;0.40;;
3953;SDS011;1991;48.682;9.030;2022-09-09T12:35:43;3.22;;;0.50;;
3953;SDS011;1991;48.682;9.030;2022-09-09T12:38:15;2.42;;;0.50;;
3953;SDS011;1991;48.682;9.030;2022-09-09T12:41:05;4.10;;;0.50;;
3953;SDS011;1991;48.682;9.030;2022-09-09T12:43:44;2.72;;;0.40;;
3953;SDS011;1991;48.682;9.030;2022-09-09T12:46:12;4.20;;;0.60;;
3953;SDS011;1991;48.682;9.030;2022-09-09T12:48:47;3.83;;;0.63;;
3953;SDS011;1991;48.682;9.030;2022-09-09T12:51:17;3.00;;;0.50;;
3953;SDS011;1991;48.682;9.030;2022-09-09T12:53:50;1.20;;;0.50;;
3953;SDS011;1991;48.682;9.030;2022-09-09T12:56:20;2.45;;;0.50;;
3953;SDS011;1991;48.682;9.030;2022-09-09T12:58:49;1.52;;;0.40;;
3953;SDS011;1991;48.682;9.030;2022-09-09T13:01:24;3.20;;;0.50;;
3953;SDS011;1991;48.682;9.030;2022-09-09T13:03:50;1.85;;;0.40;;
3953;SDS011;1991;48.682;9.030;2022-09-09T13:06:24;2.25;;;0.57;;
3953;SDS011;1991;48.682;9.030;2022-09-09T13:08:54;1.55;;;0.50;;
3953;SDS011;1991;48.682;9.030;2022-09-09T13:11:23;2.28;;;0.40;;
3953;SDS011;1991;48.682;9.030;2022-09-09T13:13:54;1.60;;;0.35;;
3953;SDS011;1991;48.682;9.030;2022-09-09T13:16:28;2.58;;;0.50;;
3953;SDS011;1991;48.682;9.030;2022-09-09T13:19:02;2.00;;;0.30;;
3953;SDS011;1991;48.682;9.030;2022-09-09T13:21:57;5.35;;;0.50;;
3953;SDS011;1991;48.682;9.030;2022-09-09T13:24:30;1.85;;;0.50;;
3953;SDS011;1991;48.682;9.030;2022-09-09T13:26:58;1.95;;;0.30;;
3953;SDS011;1991;48.682;9.030;2022-09-09T13:29:28;0.85;;;0.30;;
3953;SDS011;1991;48.682;9.030;2022-09-09T13:32:04;2.08;;;0.40;;
3953;SDS011;1991;48.682;9.030;2022-09-09T13:34:32;2.20;;;0.30;;
3953;SDS011;1991;48.682;9.030;2022-09-09T13:37:05;2.30;;;0.45;;
3953;SDS011;1991;48.682;9.030;2022-09-09T13:39:35;1.60;;;0.40;;
3953;SDS011;1991;48.682;9.030;2022-09-09T13:42:02;5.32;;;0.50;;
3953;SDS011;1991;48.682;9.030;2022-09-09T13:44:29;1.88;;;0.32;;
3953;SDS011;1991;48.682;9.030;2022-09-09T13:47:04;3.72;;;0.50;;
3953;SDS011;1991;48.682;9.030;2022-09-09T13:49:42;0.60;;;0.30;;
3953;SDS011;1991;48.682;9.030;2022-09-09T13:52:11;2.95;;;0.50;;
3953;SDS011;1991;48.682;9.030;2022-09-09T13:54:39;1.50;;;0.22;;
3953;SDS011;1991;48.682;9.030;2022-09-09T13:57:12;3.40;;;0.47;;
3953;SDS011;1991;48.682;9.030;2022-09-09T13:59:50;2.17;;;0.70;;
3953;SDS011;1991;48.682;9.030;2022-09-09T14:02:16;3.05;;;0.70;;
3953;SDS011;1991;48.682;9.030;2022-09-09T14:04:42;1.02;;;0.30;;
3953;SDS011;1991;48.682;9.030;2022-09-09T14:07:10;0.70;;;0.30;;
3953;SDS011;1991;48.682;9.030;2022-09-09T14:09:38;1.42;;;0.40;;
3953;SDS011;1991;48.682;9.030;2022-09-09T14:12:04;1.95;;;0.57;;
3953;SDS011;1991;48.682;9.030;2022-09-09T14:14:33;3.00;;;0.70;;
3953;SDS011;1991;48.682;9.030;2022-09-09T14:16:59;1.92;;;0.35;;
3953;SDS011;1991;48.682;9.030;2022-09-09T14:19:25;1.17;;;0.30;;
3953;SDS011;1991;48.682;9.030;2022-09-09T14:24:38;1.23;;;0.40;;
3953;SDS011;1991;48.682;9.030;2022-09-09T14:27:04;0.52;;;0.20;;
3953;SDS011;1991;48.682;9.030;2022-09-09T14:29:30;1.25;;;0.20;;
3953;SDS011;1991;48.682;9.030;2022-09-09T14:31:56;2.25;;;0.50;;
3953;SDS011;1991;48.682;9.030;2022-09-09T14:34:21;0.75;;;0.20;;
3953;SDS011;1991;48.682;9.030;2022-09-09T14:36:47;1.52;;;0.40;;
3953;SDS011;1991;48.682;9.030;2022-09-09T14:39:13;2.00;;;0.45;;
3953;SDS011;1991;48.682;9.030;2022-09-09T14:41:38;1.60;;;0.40;;
3953;SDS011;1991;48.682;9.030;2022-09-09T14:44:04;1.83;;;0.40;;
3953;SDS011;1991;48.682;9.030;2022-09-09T14:46:30;4.68;;;0.45;;
3953;SDS011;1991;48.682;9.030;2022-09-09T14:48:57;3.13;;;0.50;;
3953;SDS011;1991;48.682;9.030;2022-09-09T14:51:24;3.30;;;0.30;;
3953;SDS011;1991;48.682;9.030;2022-09-09T14:53:52;1.15;;;0.40;;
3953;SDS011;1991;48.682;9.030;2022-09-09T14:56:23;1.60;;;0.50;;
3953;SDS011;1991;48.682;9.030;2022-09-09T14:58:54;2.45;;;0.60;;
3953;SDS011;1991;48.682;9.030;2022-09-09T15:01:21;2.42;;;0.50;;
3953;SDS011;1991;48.682;9.030;2022-09-09T15:04:05;5.75;;;0.50;;
3953;SDS011;1991;48.682;9.030;2022-09-09T15:06:33;2.13;;;0.88;;
3953;SDS011;1991;48.682;9.030;2022-09-09T15:09:02;2.20;;;0.50;;
3953;SDS011;1991;48.682;9.030;2022-09-09T15:11:29;1.77;;;0.50;;
3953;SDS011;1991;48.682;9.030;2022-09-09T15:13:57;2.30;;;0.50;;
3953;SDS011;1991;48.682;9.030;2022-09-09T15:16:24;3.45;;;0.60;;
3953;SDS011;1991;48.682;9.030;2022-09-09T15:18:52;2.70;;;0.50;;
3953;SDS011;1991;48.682;9.030;2022-09-09T15:21:22;1.95;;;0.45;;
3953;SDS011;1991;48.682;9.030;2022-09-09T15:23:49;4.32;;;0.45;;
3953;SDS011;1991;48.682;9.030;2022-09-09T15:26:16;2.05;;;0.30;;
3953;SDS011;1991;48.682;9.030;2022-09-09T15:28:42;5.50;;;0.82;;
3953;SDS011;1991;48.682;9.030;2022-09-09T15:31:13;1.45;;;0.40;;
3953;SDS011;1991;48.682;9.030;2022-09-09T15:33:50;1.65;;;0.38;;
3953;SDS011;1991;48.682;9.030;2022-09-09T15:36:18;1.98;;;0.50;;
3953;SDS011;1991;48.682;9.030;2022-09-09T15:38:48;1.20;;;0.30;;
3953;SDS011;1991;48.682;9.030;2022-09-09T15:41:15;1.13;;;0.30;;
3953;SDS011;1991;48.682;9.030;2022-09-09T15:43:45;2.78;;;0.50;;
3953;SDS011;1991;48.682;9.030;2022-09-09T15:46:26;2.45;;;0.60;;
3953;SDS011;1991;48.682;9.030;2022-09-09T15:51:42;2.13;;;0.63;;
3953;SDS011;1991;48.682;9.030;2022-09-09T15:54:13;2.75;;;0.50;;
3953;SDS011;1991;48.682;9.030;2022-09-09T15:56:45;3.58;;;0.85;;
3953;SDS011;1991;48.682;9.030;2022-09-09T15:59:13;2.80;;;0.50;;
3953;SDS011;1991;48.682;9.030;2022-09-09T16:01:39;2.05;;;0.63;;
3953;SDS011;1991;48.682;9.030;2022-09-09T16:04:07;4.93;;;0.50;;
3953;SDS011;1991;48.682;9.030;2022-09-09T16:06:33;2.33;;;0.40;;
3953;SDS011;1991;48.682;9.030;2022-09-09T16:08:59;2.47;;;0.50;;
3953;SDS011;1991;48.682;9.030;2022-09-09T16:11:28;1.38;;;0.50;;
3953;SDS011;1991;48.682;9.030;2022-09-09T16:13:56;1.95;;;0.50;;
3953;SDS011;1991;48.682;9.030;2022-09-09T16:16:23;2.60;;;0.45;;
3953;SDS011;1991;48.682;9.030;2022-09-09T16:18:53;0.80;;;0.35;;
3953;SDS011;1991;48.682;9.030;2022-09-09T16:21:24;2.78;;;0.73;;
3953;SDS011;1991;48.682;9.030;2022-09-09T16:23:54;2.95;;;0.50;;
3953;SDS011;1991;48.682;9.030;2022-09-09T16:26:20;2.00;;;0.45;;
3953;SDS011;1991;48.682;9.030;2022-09-09T16:28:46;2.00;;;0.55;;
3953;SDS011;1991;48.682;9.030;2022-09-09T16:31:17;2.95;;;0.70;;
3953;SDS011;1991;48.682;9.030;2022-09-09T16:33:45;3.67;;;0.47;;
3953;SDS011;1991;48.682;9.030;2022-09-09T16:36:15;2.70;;;0.40;;
3953;SDS011;1991;48.682;9.030;2022-09-09T16:38:45;3.00;;;0.40;;
3953;SDS011;1991;48.682;9.030;2022-09-09T16:41:11;2.65;;;0.30;;
3953;SDS011;1991;48.682;9.030;2022-09-09T16:43:39;2.78;;;0.73;;
3953;SDS011;1991;48.682;9.030;2022-09-09T16:46:12;2.53;;;0.50;;
3953;SDS011;1991;48.682;9.030;2022-09-09T16:48:43;1.65;;;0.40;;
3953;SDS011;1991;48.682;9.030;2022-09-09T16:51:14;2.47;;;0.40;;
3953;SDS011;1991;48.682;9.030;2022-09-09T16:53:40;0.35;;;0.20;;
3953;SDS011;1991;48.682;9.030;2022-09-09T16:56:28;1.85;;;0.40;;
3953;SDS011;1991;48.682;9.030;2022-09-09T16:58:56;0.90;;;0.30;;
3953;SDS011;1991;48.682;9.030;2022-09-09T17:01:24;1.30;;;0.70;;
3953;SDS011;1991;48.682;9.030;2022-09-09T17:03:55;1.73;;;0.40;;
3953;SDS011;1991;48.682;9.030;2022-09-09T17:06:21;0.70;;;0.30;;
3953;SDS011;1991;48.682;9.030;2022-09-09T17:08:53;1.27;;;0.50;;
3953;SDS011;1991;48.682;9.030;2022-09-09T17:11:26;2.45;;;0.95;;
3953;SDS011;1991;48.682;9.030;2022-09-09T17:13:53;0.75;;;0.43;;
3953;SDS011;1991;48.682;9.030;2022-09-09T17:16:20;1.08;;;0.32;;
3953;SDS011;1991;48.682;9.030;2022-09-09T17:18:48;0.90;;;0.40;;
3953;SDS011;1991;48.682;9.030;2022-09-09T17:21:18;0.73;;;0.57;;
3953;SDS011;1991;48.682;9.030;2022-09-09T17:23:45;2.67;;;0.45;;
3953;SDS011;1991;48.682;9.030;2022-09-09T17:26:12;2.72;;;0.40;;